sensor_id;sensor_type;location;lat;lon;timestamp;P1;durP1;ratioP1;P2;durP2;ratioP2
21905;SDS011;11117;48.644;9.006;2022-12-15T00:00:49;54.70;;;26.50;;
21905;SDS011;11117;48.644;9.006;2022-12-15T00:03:15;55.63;;;26.50;;
21905;SDS011;11117;48.644;9.006;2022-12-15T00:05:40;56.30;;;26.20;;
21905;SDS011;11117;48.644;9.006;2022-12-15T00:08:09;55.53;;;27.07;;
21905;SDS011;11117;48.644;9.006;2022-12-15T00:10:35;61.93;;;28.23;;
21905;SDS011;11117;48.644;9.006;2022-12-15T00:13:01;56.30;;;27.27;;
21905;SDS011;11117;48.644;9.006;2022-12-15T00:15:26;53.37;;;25.87;;
21905;SDS011;11117;48.644;9.006;2022-12-15T00:17:52;54.43;;;26.37;;
21905;SDS011;11117;48.644;9.006;2022-12-15T00:20:18;54.77;;;27.43;;
21905;SDS011;11117;48.644;9.006;2022-12-15T00:22:43;51.47;;;26.30;;
21905;SDS011;11117;48.644;9.006;2022-12-15T00:25:09;56.13;;;26.57;;
21905;SDS011;11117;48.644;9.006;2022-12-15T00:27:35;54.20;;;26.37;;
21905;SDS011;11117;48.644;9.006;2022-12-15T00:30:02;54.70;;;27.27;;
21905;SDS011;11117;48.644;9.006;2022-12-15T00:32:29;54.47;;;27.03;;
21905;SDS011;11117;48.644;9.006;2022-12-15T00:34:55;53.03;;;27.17;;
21905;SDS011;11117;48.644;9.006;2022-12-15T00:37:21;55.87;;;26.53;;
21905;SDS011;11117;48.644;9.006;2022-12-15T00:39:46;57.20;;;26.83;;
21905;SDS011;11117;48.644;9.006;2022-12-15T00:42:12;53.47;;;26.70;;
21905;SDS011;11117;48.644;9.006;2022-12-15T00:44:37;52.40;;;27.00;;
21905;SDS011;11117;48.644;9.006;2022-12-15T00:47:03;59.03;;;28.20;;
21905;SDS011;11117;48.644;9.006;2022-12-15T00:49:31;58.43;;;28.57;;
21905;SDS011;11117;48.644;9.006;2022-12-15T00:51:56;58.03;;;28.67;;
21905;SDS011;11117;48.644;9.006;2022-12-15T00:54:22;61.60;;;28.73;;
21905;SDS011;11117;48.644;9.006;2022-12-15T00:56:47;57.43;;;28.70;;
21905;SDS011;11117;48.644;9.006;2022-12-15T00:59:13;60.63;;;27.87;;
21905;SDS011;11117;48.644;9.006;2022-12-15T01:01:41;57.27;;;28.97;;
21905;SDS011;11117;48.644;9.006;2022-12-15T01:04:19;61.83;;;28.77;;
21905;SDS011;11117;48.644;9.006;2022-12-15T01:06:45;58.27;;;28.43;;
21905;SDS011;11117;48.644;9.006;2022-12-15T01:09:11;54.17;;;27.27;;
21905;SDS011;11117;48.644;9.006;2022-12-15T01:11:37;58.50;;;28.03;;
21905;SDS011;11117;48.644;9.006;2022-12-15T01:14:03;59.20;;;28.60;;
21905;SDS011;11117;48.644;9.006;2022-12-15T01:16:29;55.00;;;28.13;;
21905;SDS011;11117;48.644;9.006;2022-12-15T01:18:55;53.47;;;27.23;;
21905;SDS011;11117;48.644;9.006;2022-12-15T01:21:20;56.07;;;27.57;;
21905;SDS011;11117;48.644;9.006;2022-12-15T01:23:46;56.23;;;27.77;;
21905;SDS011;11117;48.644;9.006;2022-12-15T01:26:12;59.20;;;27.67;;
21905;SDS011;11117;48.644;9.006;2022-12-15T01:28:37;57.83;;;27.67;;
21905;SDS011;11117;48.644;9.006;2022-12-15T01:31:11;55.57;;;28.33;;
21905;SDS011;11117;48.644;9.006;2022-12-15T01:33:36;57.43;;;28.03;;
21905;SDS011;11117;48.644;9.006;2022-12-15T01:36:02;56.70;;;27.10;;
21905;SDS011;11117;48.644;9.006;2022-12-15T01:38:28;58.03;;;27.87;;
21905;SDS011;11117;48.644;9.006;2022-12-15T01:40:57;55.53;;;27.67;;
21905;SDS011;11117;48.644;9.006;2022-12-15T01:43:30;57.80;;;27.33;;
21905;SDS011;11117;48.644;9.006;2022-12-15T01:48:41;58.93;;;28.47;;
21905;SDS011;11117;48.644;9.006;2022-12-15T01:51:30;56.80;;;28.03;;
21905;SDS011;11117;48.644;9.006;2022-12-15T01:54:12;52.03;;;26.03;;
21905;SDS011;11117;48.644;9.006;2022-12-15T01:56:49;53.63;;;26.87;;
21905;SDS011;11117;48.644;9.006;2022-12-15T01:59:20;57.53;;;26.80;;
21905;SDS011;11117;48.644;9.006;2022-12-15T02:01:50;56.00;;;27.10;;
21905;SDS011;11117;48.644;9.006;2022-12-15T02:04:17;56.00;;;27.20;;
21905;SDS011;11117;48.644;9.006;2022-12-15T02:06:45;57.30;;;28.47;;
21905;SDS011;11117;48.644;9.006;2022-12-15T02:09:11;56.60;;;27.43;;
21905;SDS011;11117;48.644;9.006;2022-12-15T02:11:56;58.57;;;28.13;;
21905;SDS011;11117;48.644;9.006;2022-12-15T02:23:32;58.23;;;28.37;;
21905;SDS011;11117;48.644;9.006;2022-12-15T02:31:27;58.57;;;29.03;;
21905;SDS011;11117;48.644;9.006;2022-12-15T02:34:05;56.67;;;27.87;;
21905;SDS011;11117;48.644;9.006;2022-12-15T02:36:58;57.50;;;27.50;;
21905;SDS011;11117;48.644;9.006;2022-12-15T02:39:29;55.53;;;27.83;;
21905;SDS011;11117;48.644;9.006;2022-12-15T02:41:55;56.57;;;26.90;;
21905;SDS011;11117;48.644;9.006;2022-12-15T02:44:23;60.10;;;29.20;;
21905;SDS011;11117;48.644;9.006;2022-12-15T02:56:11;56.27;;;27.50;;
21905;SDS011;11117;48.644;9.006;2022-12-15T02:59:07;56.00;;;27.43;;
21905;SDS011;11117;48.644;9.006;2022-12-15T03:01:41;60.70;;;27.20;;
21905;SDS011;11117;48.644;9.006;2022-12-15T03:04:08;60.67;;;27.33;;
21905;SDS011;11117;48.644;9.006;2022-12-15T03:06:35;57.10;;;27.40;;
21905;SDS011;11117;48.644;9.006;2022-12-15T03:09:01;59.67;;;28.30;;
21905;SDS011;11117;48.644;9.006;2022-12-15T03:11:27;58.63;;;25.47;;
21905;SDS011;11117;48.644;9.006;2022-12-15T03:13:53;59.80;;;28.57;;
21905;SDS011;11117;48.644;9.006;2022-12-15T03:16:22;64.87;;;29.33;;
21905;SDS011;11117;48.644;9.006;2022-12-15T03:18:47;55.40;;;27.43;;
21905;SDS011;11117;48.644;9.006;2022-12-15T03:21:13;58.63;;;28.37;;
21905;SDS011;11117;48.644;9.006;2022-12-15T03:23:38;57.30;;;27.73;;
21905;SDS011;11117;48.644;9.006;2022-12-15T03:26:04;63.00;;;29.17;;
21905;SDS011;11117;48.644;9.006;2022-12-15T03:28:30;55.40;;;26.73;;
21905;SDS011;11117;48.644;9.006;2022-12-15T03:30:55;61.20;;;27.60;;
21905;SDS011;11117;48.644;9.006;2022-12-15T03:33:21;59.53;;;27.77;;
21905;SDS011;11117;48.644;9.006;2022-12-15T03:35:47;56.53;;;28.27;;
21905;SDS011;11117;48.644;9.006;2022-12-15T03:38:12;55.53;;;28.17;;
21905;SDS011;11117;48.644;9.006;2022-12-15T03:40:38;58.80;;;28.20;;
21905;SDS011;11117;48.644;9.006;2022-12-15T03:43:03;60.10;;;29.10;;
21905;SDS011;11117;48.644;9.006;2022-12-15T03:45:29;57.97;;;28.83;;
21905;SDS011;11117;48.644;9.006;2022-12-15T03:47:55;58.93;;;28.87;;
21905;SDS011;11117;48.644;9.006;2022-12-15T03:50:22;58.60;;;27.43;;
21905;SDS011;11117;48.644;9.006;2022-12-15T03:52:51;61.50;;;28.67;;
21905;SDS011;11117;48.644;9.006;2022-12-15T03:55:19;60.40;;;27.90;;
21905;SDS011;11117;48.644;9.006;2022-12-15T03:57:45;57.30;;;28.03;;
21905;SDS011;11117;48.644;9.006;2022-12-15T04:00:11;59.57;;;27.43;;
21905;SDS011;11117;48.644;9.006;2022-12-15T04:02:38;59.83;;;29.03;;
21905;SDS011;11117;48.644;9.006;2022-12-15T04:05:03;65.80;;;28.50;;
21905;SDS011;11117;48.644;9.006;2022-12-15T04:07:29;62.73;;;29.23;;
21905;SDS011;11117;48.644;9.006;2022-12-15T04:09:55;64.93;;;29.60;;
21905;SDS011;11117;48.644;9.006;2022-12-15T04:12:20;59.07;;;28.03;;
21905;SDS011;11117;48.644;9.006;2022-12-15T04:14:46;57.87;;;27.33;;
21905;SDS011;11117;48.644;9.006;2022-12-15T04:17:11;63.73;;;28.83;;
21905;SDS011;11117;48.644;9.006;2022-12-15T04:19:37;59.23;;;28.53;;
21905;SDS011;11117;48.644;9.006;2022-12-15T04:22:02;61.27;;;27.80;;
21905;SDS011;11117;48.644;9.006;2022-12-15T04:24:28;60.10;;;28.67;;
21905;SDS011;11117;48.644;9.006;2022-12-15T04:26:53;58.47;;;28.50;;
21905;SDS011;11117;48.644;9.006;2022-12-15T04:29:19;60.30;;;28.00;;
21905;SDS011;11117;48.644;9.006;2022-12-15T04:31:44;59.07;;;28.23;;
21905;SDS011;11117;48.644;9.006;2022-12-15T04:34:11;62.10;;;29.53;;
21905;SDS011;11117;48.644;9.006;2022-12-15T04:36:39;60.60;;;29.17;;
21905;SDS011;11117;48.644;9.006;2022-12-15T04:39:06;61.67;;;29.53;;
21905;SDS011;11117;48.644;9.006;2022-12-15T04:41:32;60.43;;;29.47;;
21905;SDS011;11117;48.644;9.006;2022-12-15T04:43:58;65.33;;;29.77;;
21905;SDS011;11117;48.644;9.006;2022-12-15T04:46:23;71.13;;;29.60;;
21905;SDS011;11117;48.644;9.006;2022-12-15T04:48:52;66.50;;;30.17;;
21905;SDS011;11117;48.644;9.006;2022-12-15T04:51:18;63.10;;;29.63;;
21905;SDS011;11117;48.644;9.006;2022-12-15T04:53:43;64.90;;;28.83;;
21905;SDS011;11117;48.644;9.006;2022-12-15T04:56:10;58.43;;;28.30;;
21905;SDS011;11117;48.644;9.006;2022-12-15T04:58:37;68.47;;;31.47;;
21905;SDS011;11117;48.644;9.006;2022-12-15T05:01:03;62.20;;;29.63;;
21905;SDS011;11117;48.644;9.006;2022-12-15T05:03:28;65.80;;;31.07;;
21905;SDS011;11117;48.644;9.006;2022-12-15T05:05:54;69.07;;;30.37;;
21905;SDS011;11117;48.644;9.006;2022-12-15T05:08:21;74.35;;;37.90;;
21905;SDS011;11117;48.644;9.006;2022-12-15T05:10:46;73.90;;;34.33;;
21905;SDS011;11117;48.644;9.006;2022-12-15T05:13:12;75.00;;;32.40;;
21905;SDS011;11117;48.644;9.006;2022-12-15T05:15:37;67.87;;;32.50;;
21905;SDS011;11117;48.644;9.006;2022-12-15T05:18:03;75.37;;;33.27;;
21905;SDS011;11117;48.644;9.006;2022-12-15T05:20:28;67.97;;;32.80;;
21905;SDS011;11117;48.644;9.006;2022-12-15T05:22:54;78.93;;;32.33;;
21905;SDS011;11117;48.644;9.006;2022-12-15T05:25:20;75.50;;;32.53;;
21905;SDS011;11117;48.644;9.006;2022-12-15T05:27:46;72.43;;;32.77;;
21905;SDS011;11117;48.644;9.006;2022-12-15T05:30:11;74.60;;;32.97;;
21905;SDS011;11117;48.644;9.006;2022-12-15T05:32:40;73.83;;;33.00;;
21905;SDS011;11117;48.644;9.006;2022-12-15T05:35:05;68.03;;;31.17;;
21905;SDS011;11117;48.644;9.006;2022-12-15T05:37:31;68.63;;;32.00;;
21905;SDS011;11117;48.644;9.006;2022-12-15T05:39:56;69.07;;;31.27;;
21905;SDS011;11117;48.644;9.006;2022-12-15T05:42:22;71.00;;;31.53;;
21905;SDS011;11117;48.644;9.006;2022-12-15T05:44:47;71.03;;;30.87;;
21905;SDS011;11117;48.644;9.006;2022-12-15T05:47:13;68.30;;;32.53;;
21905;SDS011;11117;48.644;9.006;2022-12-15T05:49:38;71.70;;;32.40;;
21905;SDS011;11117;48.644;9.006;2022-12-15T05:52:04;75.57;;;33.13;;
21905;SDS011;11117;48.644;9.006;2022-12-15T05:54:30;68.33;;;31.90;;
21905;SDS011;11117;48.644;9.006;2022-12-15T05:56:55;70.97;;;31.77;;
21905;SDS011;11117;48.644;9.006;2022-12-15T05:59:21;69.07;;;31.50;;
21905;SDS011;11117;48.644;9.006;2022-12-15T06:01:46;74.07;;;31.63;;
21905;SDS011;11117;48.644;9.006;2022-12-15T06:04:12;73.37;;;32.50;;
21905;SDS011;11117;48.644;9.006;2022-12-15T06:06:38;70.30;;;32.17;;
21905;SDS011;11117;48.644;9.006;2022-12-15T06:09:03;83.70;;;34.47;;
21905;SDS011;11117;48.644;9.006;2022-12-15T06:11:29;76.13;;;32.73;;
21905;SDS011;11117;48.644;9.006;2022-12-15T06:13:55;74.07;;;32.40;;
21905;SDS011;11117;48.644;9.006;2022-12-15T06:16:21;79.00;;;32.50;;
21905;SDS011;11117;48.644;9.006;2022-12-15T06:18:49;78.40;;;34.30;;
21905;SDS011;11117;48.644;9.006;2022-12-15T06:21:18;73.70;;;34.07;;
21905;SDS011;11117;48.644;9.006;2022-12-15T06:23:46;84.20;;;33.47;;
21905;SDS011;11117;48.644;9.006;2022-12-15T06:26:21;72.03;;;33.17;;
21905;SDS011;11117;48.644;9.006;2022-12-15T06:28:57;75.40;;;33.13;;
21905;SDS011;11117;48.644;9.006;2022-12-15T06:31:24;77.97;;;33.90;;
21905;SDS011;11117;48.644;9.006;2022-12-15T06:33:50;78.07;;;32.93;;
21905;SDS011;11117;48.644;9.006;2022-12-15T06:36:17;74.33;;;34.07;;
21905;SDS011;11117;48.644;9.006;2022-12-15T06:38:43;81.03;;;34.60;;
21905;SDS011;11117;48.644;9.006;2022-12-15T06:41:10;84.07;;;34.80;;
21905;SDS011;11117;48.644;9.006;2022-12-15T06:43:37;83.50;;;37.07;;
21905;SDS011;11117;48.644;9.006;2022-12-15T06:46:03;87.10;;;37.33;;
21905;SDS011;11117;48.644;9.006;2022-12-15T06:48:29;76.23;;;33.73;;
21905;SDS011;11117;48.644;9.006;2022-12-15T06:50:55;75.93;;;33.10;;
21905;SDS011;11117;48.644;9.006;2022-12-15T06:53:22;77.17;;;32.53;;
21905;SDS011;11117;48.644;9.006;2022-12-15T06:55:48;77.10;;;33.07;;
21905;SDS011;11117;48.644;9.006;2022-12-15T06:58:14;79.27;;;36.00;;
21905;SDS011;11117;48.644;9.006;2022-12-15T07:00:41;89.93;;;38.73;;
21905;SDS011;11117;48.644;9.006;2022-12-15T07:03:16;76.07;;;33.10;;
21905;SDS011;11117;48.644;9.006;2022-12-15T07:05:42;83.37;;;33.93;;
21905;SDS011;11117;48.644;9.006;2022-12-15T07:08:12;77.23;;;35.50;;
21905;SDS011;11117;48.644;9.006;2022-12-15T07:10:40;78.17;;;32.87;;
21905;SDS011;11117;48.644;9.006;2022-12-15T07:13:10;83.20;;;36.60;;
21905;SDS011;11117;48.644;9.006;2022-12-15T07:15:37;73.80;;;33.47;;
21905;SDS011;11117;48.644;9.006;2022-12-15T07:18:03;86.27;;;37.73;;
21905;SDS011;11117;48.644;9.006;2022-12-15T07:20:28;76.00;;;32.63;;
21905;SDS011;11117;48.644;9.006;2022-12-15T07:22:54;92.33;;;42.63;;
21905;SDS011;11117;48.644;9.006;2022-12-15T07:25:20;87.50;;;39.47;;
21905;SDS011;11117;48.644;9.006;2022-12-15T07:27:45;81.87;;;38.10;;
21905;SDS011;11117;48.644;9.006;2022-12-15T07:30:12;76.67;;;36.33;;
21905;SDS011;11117;48.644;9.006;2022-12-15T07:32:39;84.83;;;37.93;;
21905;SDS011;11117;48.644;9.006;2022-12-15T07:35:05;75.90;;;33.37;;
21905;SDS011;11117;48.644;9.006;2022-12-15T07:37:30;79.27;;;33.77;;
21905;SDS011;11117;48.644;9.006;2022-12-15T07:39:56;75.00;;;33.23;;
21905;SDS011;11117;48.644;9.006;2022-12-15T07:42:22;83.27;;;37.07;;
21905;SDS011;11117;48.644;9.006;2022-12-15T07:44:47;83.43;;;36.87;;
21905;SDS011;11117;48.644;9.006;2022-12-15T07:47:13;77.90;;;34.73;;
21905;SDS011;11117;48.644;9.006;2022-12-15T07:49:39;80.33;;;36.50;;
21905;SDS011;11117;48.644;9.006;2022-12-15T07:52:04;72.97;;;33.53;;
21905;SDS011;11117;48.644;9.006;2022-12-15T07:54:30;79.83;;;35.03;;
21905;SDS011;11117;48.644;9.006;2022-12-15T07:56:55;85.13;;;35.87;;
21905;SDS011;11117;48.644;9.006;2022-12-15T07:59:21;71.97;;;33.50;;
21905;SDS011;11117;48.644;9.006;2022-12-15T08:02:12;77.77;;;34.60;;
21905;SDS011;11117;48.644;9.006;2022-12-15T08:04:38;75.37;;;31.80;;
21905;SDS011;11117;48.644;9.006;2022-12-15T08:07:04;77.93;;;34.07;;
21905;SDS011;11117;48.644;9.006;2022-12-15T08:09:30;68.97;;;31.47;;
21905;SDS011;11117;48.644;9.006;2022-12-15T08:11:56;80.53;;;35.20;;
21905;SDS011;11117;48.644;9.006;2022-12-15T08:14:22;81.77;;;37.33;;
21905;SDS011;11117;48.644;9.006;2022-12-15T08:16:48;77.67;;;35.83;;
21905;SDS011;11117;48.644;9.006;2022-12-15T08:19:13;79.03;;;35.57;;
21905;SDS011;11117;48.644;9.006;2022-12-15T08:21:40;80.43;;;34.87;;
21905;SDS011;11117;48.644;9.006;2022-12-15T08:24:07;75.60;;;33.63;;
21905;SDS011;11117;48.644;9.006;2022-12-15T08:26:34;79.53;;;34.60;;
21905;SDS011;11117;48.644;9.006;2022-12-15T08:29:01;77.60;;;34.03;;
21905;SDS011;11117;48.644;9.006;2022-12-15T08:31:31;79.10;;;32.53;;
21905;SDS011;11117;48.644;9.006;2022-12-15T08:33:58;77.10;;;34.57;;
21905;SDS011;11117;48.644;9.006;2022-12-15T08:36:24;74.87;;;33.90;;
21905;SDS011;11117;48.644;9.006;2022-12-15T08:38:50;79.07;;;35.00;;
21905;SDS011;11117;48.644;9.006;2022-12-15T08:41:17;74.57;;;34.60;;
21905;SDS011;11117;48.644;9.006;2022-12-15T08:43:45;76.77;;;34.23;;
21905;SDS011;11117;48.644;9.006;2022-12-15T08:46:11;74.00;;;33.40;;
21905;SDS011;11117;48.644;9.006;2022-12-15T08:48:37;75.27;;;31.93;;
21905;SDS011;11117;48.644;9.006;2022-12-15T08:51:02;76.07;;;33.63;;
21905;SDS011;11117;48.644;9.006;2022-12-15T08:53:28;75.00;;;33.17;;
21905;SDS011;11117;48.644;9.006;2022-12-15T08:55:54;74.63;;;34.37;;
21905;SDS011;11117;48.644;9.006;2022-12-15T08:58:20;76.07;;;33.60;;
21905;SDS011;11117;48.644;9.006;2022-12-15T09:00:45;79.90;;;34.90;;
21905;SDS011;11117;48.644;9.006;2022-12-15T09:03:11;74.50;;;32.43;;
21905;SDS011;11117;48.644;9.006;2022-12-15T09:05:37;71.73;;;32.10;;
21905;SDS011;11117;48.644;9.006;2022-12-15T09:08:03;70.43;;;31.23;;
21905;SDS011;11117;48.644;9.006;2022-12-15T09:10:30;74.73;;;32.40;;
21905;SDS011;11117;48.644;9.006;2022-12-15T09:12:55;71.20;;;33.20;;
21905;SDS011;11117;48.644;9.006;2022-12-15T09:15:21;76.73;;;34.23;;
21905;SDS011;11117;48.644;9.006;2022-12-15T09:17:47;74.63;;;32.67;;
21905;SDS011;11117;48.644;9.006;2022-12-15T09:20:12;75.00;;;34.07;;
21905;SDS011;11117;48.644;9.006;2022-12-15T09:22:41;75.60;;;34.73;;
21905;SDS011;11117;48.644;9.006;2022-12-15T09:25:07;74.07;;;35.40;;
21905;SDS011;11117;48.644;9.006;2022-12-15T09:27:33;73.57;;;33.03;;
21905;SDS011;11117;48.644;9.006;2022-12-15T09:29:59;78.40;;;34.83;;
21905;SDS011;11117;48.644;9.006;2022-12-15T09:32:25;75.53;;;35.03;;
21905;SDS011;11117;48.644;9.006;2022-12-15T09:34:51;74.50;;;34.73;;
21905;SDS011;11117;48.644;9.006;2022-12-15T09:37:17;75.30;;;33.40;;
21905;SDS011;11117;48.644;9.006;2022-12-15T09:39:43;72.93;;;34.43;;
21905;SDS011;11117;48.644;9.006;2022-12-15T09:42:21;75.77;;;34.27;;
21905;SDS011;11117;48.644;9.006;2022-12-15T09:44:47;77.20;;;32.40;;
21905;SDS011;11117;48.644;9.006;2022-12-15T09:47:20;72.50;;;34.37;;
21905;SDS011;11117;48.644;9.006;2022-12-15T09:50:10;69.53;;;33.03;;
21905;SDS011;11117;48.644;9.006;2022-12-15T09:52:47;71.67;;;31.63;;
21905;SDS011;11117;48.644;9.006;2022-12-15T10:05:36;77.23;;;34.57;;
21905;SDS011;11117;48.644;9.006;2022-12-15T10:08:17;74.03;;;33.63;;
21905;SDS011;11117;48.644;9.006;2022-12-15T10:10:57;67.60;;;32.43;;
21905;SDS011;11117;48.644;9.006;2022-12-15T10:16:17;78.47;;;32.77;;
21905;SDS011;11117;48.644;9.006;2022-12-15T10:19:09;70.13;;;33.27;;
21905;SDS011;11117;48.644;9.006;2022-12-15T10:21:39;67.37;;;32.93;;
21905;SDS011;11117;48.644;9.006;2022-12-15T10:24:11;73.03;;;33.23;;
21905;SDS011;11117;48.644;9.006;2022-12-15T10:26:43;67.63;;;31.60;;
21905;SDS011;11117;48.644;9.006;2022-12-15T10:29:24;67.17;;;30.47;;
21905;SDS011;11117;48.644;9.006;2022-12-15T10:32:13;69.43;;;31.60;;
21905;SDS011;11117;48.644;9.006;2022-12-15T10:34:43;74.57;;;33.27;;
21905;SDS011;11117;48.644;9.006;2022-12-15T10:37:13;71.43;;;32.70;;
21905;SDS011;11117;48.644;9.006;2022-12-15T10:39:42;68.83;;;31.97;;
21905;SDS011;11117;48.644;9.006;2022-12-15T10:44:44;67.97;;;32.73;;
21905;SDS011;11117;48.644;9.006;2022-12-15T10:47:14;81.33;;;34.43;;
21905;SDS011;11117;48.644;9.006;2022-12-15T10:49:41;71.60;;;34.37;;
21905;SDS011;11117;48.644;9.006;2022-12-15T10:52:13;79.40;;;36.27;;
21905;SDS011;11117;48.644;9.006;2022-12-15T10:54:43;78.60;;;35.17;;
21905;SDS011;11117;48.644;9.006;2022-12-15T10:57:15;72.63;;;33.07;;
21905;SDS011;11117;48.644;9.006;2022-12-15T10:59:44;76.10;;;33.37;;
21905;SDS011;11117;48.644;9.006;2022-12-15T11:04:56;69.67;;;32.63;;
21905;SDS011;11117;48.644;9.006;2022-12-15T11:07:37;75.83;;;37.03;;
21905;SDS011;11117;48.644;9.006;2022-12-15T11:10:23;72.17;;;32.93;;
21905;SDS011;11117;48.644;9.006;2022-12-15T11:15:41;79.17;;;35.57;;
21905;SDS011;11117;48.644;9.006;2022-12-15T11:18:28;66.47;;;33.17;;
21905;SDS011;11117;48.644;9.006;2022-12-15T11:26:50;70.83;;;32.70;;
21905;SDS011;11117;48.644;9.006;2022-12-15T11:29:43;68.33;;;33.50;;
21905;SDS011;11117;48.644;9.006;2022-12-15T11:32:10;71.27;;;35.20;;
21905;SDS011;11117;48.644;9.006;2022-12-15T11:34:46;69.23;;;32.93;;
21905;SDS011;11117;48.644;9.006;2022-12-15T11:48:30;66.67;;;32.60;;
21905;SDS011;11117;48.644;9.006;2022-12-15T11:56:46;67.17;;;33.07;;
21905;SDS011;11117;48.644;9.006;2022-12-15T11:59:42;66.47;;;32.20;;
21905;SDS011;11117;48.644;9.006;2022-12-15T12:07:49;69.90;;;32.20;;
21905;SDS011;11117;48.644;9.006;2022-12-15T12:10:41;68.90;;;31.20;;
21905;SDS011;11117;48.644;9.006;2022-12-15T12:19:06;76.70;;;30.80;;
21905;SDS011;11117;48.644;9.006;2022-12-15T12:21:46;64.10;;;31.07;;
21905;SDS011;11117;48.644;9.006;2022-12-15T12:24:22;67.93;;;30.50;;
21905;SDS011;11117;48.644;9.006;2022-12-15T12:27:12;64.70;;;30.20;;
21905;SDS011;11117;48.644;9.006;2022-12-15T12:29:58;62.43;;;30.47;;
21905;SDS011;11117;48.644;9.006;2022-12-15T12:32:47;64.60;;;29.03;;
21905;SDS011;11117;48.644;9.006;2022-12-15T12:35:24;67.83;;;30.70;;
21905;SDS011;11117;48.644;9.006;2022-12-15T12:38:06;65.20;;;29.17;;
21905;SDS011;11117;48.644;9.006;2022-12-15T12:46:29;63.13;;;31.10;;
21905;SDS011;11117;48.644;9.006;2022-12-15T12:49:18;58.00;;;30.60;;
21905;SDS011;11117;48.644;9.006;2022-12-15T12:51:57;61.00;;;29.53;;
21905;SDS011;11117;48.644;9.006;2022-12-15T12:56:55;57.73;;;28.77;;
21905;SDS011;11117;48.644;9.006;2022-12-15T13:01:56;57.37;;;29.30;;
21905;SDS011;11117;48.644;9.006;2022-12-15T13:04:46;62.23;;;30.10;;
21905;SDS011;11117;48.644;9.006;2022-12-15T13:07:34;66.57;;;31.10;;
21905;SDS011;11117;48.644;9.006;2022-12-15T13:15:28;65.97;;;31.50;;
21905;SDS011;11117;48.644;9.006;2022-12-15T13:18:04;67.57;;;31.97;;
21905;SDS011;11117;48.644;9.006;2022-12-15T13:20:32;62.73;;;30.03;;
21905;SDS011;11117;48.644;9.006;2022-12-15T13:28:29;64.77;;;29.93;;
21905;SDS011;11117;48.644;9.006;2022-12-15T13:39:01;65.07;;;30.03;;
21905;SDS011;11117;48.644;9.006;2022-12-15T13:41:27;66.70;;;31.83;;
21905;SDS011;11117;48.644;9.006;2022-12-15T13:43:52;64.23;;;30.17;;
21905;SDS011;11117;48.644;9.006;2022-12-15T13:46:21;63.90;;;30.27;;
21905;SDS011;11117;48.644;9.006;2022-12-15T13:48:59;66.90;;;30.57;;
21905;SDS011;11117;48.644;9.006;2022-12-15T13:51:49;63.93;;;30.43;;
21905;SDS011;11117;48.644;9.006;2022-12-15T13:54:23;66.33;;;31.33;;
21905;SDS011;11117;48.644;9.006;2022-12-15T13:57:00;72.80;;;31.80;;
21905;SDS011;11117;48.644;9.006;2022-12-15T13:59:49;71.97;;;32.40;;
21905;SDS011;11117;48.644;9.006;2022-12-15T14:07:47;67.27;;;31.87;;
21905;SDS011;11117;48.644;9.006;2022-12-15T14:10:16;62.80;;;29.70;;
21905;SDS011;11117;48.644;9.006;2022-12-15T14:13:11;64.53;;;29.83;;
21905;SDS011;11117;48.644;9.006;2022-12-15T14:15:43;62.63;;;29.17;;
21905;SDS011;11117;48.644;9.006;2022-12-15T14:18:21;63.70;;;29.00;;
21905;SDS011;11117;48.644;9.006;2022-12-15T14:20:52;59.67;;;27.30;;
21905;SDS011;11117;48.644;9.006;2022-12-15T14:23:18;64.90;;;28.93;;
21905;SDS011;11117;48.644;9.006;2022-12-15T14:26:05;68.47;;;31.53;;
21905;SDS011;11117;48.644;9.006;2022-12-15T14:28:36;76.57;;;30.83;;
21905;SDS011;11117;48.644;9.006;2022-12-15T14:33:44;70.40;;;29.90;;
21905;SDS011;11117;48.644;9.006;2022-12-15T14:36:13;64.00;;;29.77;;
21905;SDS011;11117;48.644;9.006;2022-12-15T14:41:18;64.37;;;29.77;;
21905;SDS011;11117;48.644;9.006;2022-12-15T14:43:46;67.07;;;28.67;;
21905;SDS011;11117;48.644;9.006;2022-12-15T14:46:28;63.07;;;28.60;;
21905;SDS011;11117;48.644;9.006;2022-12-15T14:48:59;63.23;;;27.20;;
21905;SDS011;11117;48.644;9.006;2022-12-15T14:51:27;69.07;;;28.93;;
21905;SDS011;11117;48.644;9.006;2022-12-15T14:53:54;67.17;;;29.67;;
21905;SDS011;11117;48.644;9.006;2022-12-15T14:58:46;64.73;;;28.57;;
21905;SDS011;11117;48.644;9.006;2022-12-15T15:01:28;62.00;;;28.60;;
21905;SDS011;11117;48.644;9.006;2022-12-15T15:03:59;63.93;;;28.27;;
21905;SDS011;11117;48.644;9.006;2022-12-15T15:06:36;64.03;;;28.33;;
21905;SDS011;11117;48.644;9.006;2022-12-15T15:09:11;64.30;;;26.93;;
21905;SDS011;11117;48.644;9.006;2022-12-15T15:11:51;61.20;;;27.97;;
21905;SDS011;11117;48.644;9.006;2022-12-15T15:14:22;66.73;;;28.23;;
21905;SDS011;11117;48.644;9.006;2022-12-15T15:19:27;66.70;;;29.27;;
21905;SDS011;11117;48.644;9.006;2022-12-15T15:22:02;72.27;;;28.50;;
21905;SDS011;11117;48.644;9.006;2022-12-15T15:24:29;72.20;;;30.50;;
21905;SDS011;11117;48.644;9.006;2022-12-15T15:29:47;74.80;;;31.30;;
21905;SDS011;11117;48.644;9.006;2022-12-15T15:32:19;74.67;;;30.27;;
21905;SDS011;11117;48.644;9.006;2022-12-15T15:34:46;73.63;;;30.37;;
21905;SDS011;11117;48.644;9.006;2022-12-15T15:37:16;78.60;;;29.90;;
21905;SDS011;11117;48.644;9.006;2022-12-15T15:39:46;49.60;;;21.60;;
21905;SDS011;11117;48.644;9.006;2022-12-15T15:42:14;76.90;;;30.97;;
21905;SDS011;11117;48.644;9.006;2022-12-15T15:44:43;73.23;;;31.50;;
21905;SDS011;11117;48.644;9.006;2022-12-15T15:47:15;71.53;;;30.27;;
21905;SDS011;11117;48.644;9.006;2022-12-15T15:49:54;73.90;;;29.73;;
21905;SDS011;11117;48.644;9.006;2022-12-15T15:52:23;78.40;;;30.17;;
21905;SDS011;11117;48.644;9.006;2022-12-15T15:54:49;74.13;;;31.93;;
21905;SDS011;11117;48.644;9.006;2022-12-15T15:57:19;73.93;;;28.50;;
21905;SDS011;11117;48.644;9.006;2022-12-15T15:59:45;75.77;;;30.87;;
21905;SDS011;11117;48.644;9.006;2022-12-15T16:02:11;134.60;;;37.93;;
21905;SDS011;11117;48.644;9.006;2022-12-15T16:04:40;84.27;;;31.67;;
21905;SDS011;11117;48.644;9.006;2022-12-15T16:09:49;72.53;;;28.37;;
21905;SDS011;11117;48.644;9.006;2022-12-15T16:12:25;84.17;;;30.30;;
21905;SDS011;11117;48.644;9.006;2022-12-15T16:14:53;72.13;;;28.53;;
21905;SDS011;11117;48.644;9.006;2022-12-15T16:17:20;73.30;;;28.27;;
21905;SDS011;11117;48.644;9.006;2022-12-15T16:19:46;70.03;;;28.10;;
21905;SDS011;11117;48.644;9.006;2022-12-15T16:22:15;77.43;;;29.53;;
21905;SDS011;11117;48.644;9.006;2022-12-15T16:24:43;76.27;;;28.83;;
21905;SDS011;11117;48.644;9.006;2022-12-15T16:27:09;81.90;;;30.60;;
21905;SDS011;11117;48.644;9.006;2022-12-15T16:29:36;70.83;;;28.67;;
21905;SDS011;11117;48.644;9.006;2022-12-15T16:32:03;73.27;;;30.40;;
21905;SDS011;11117;48.644;9.006;2022-12-15T16:34:29;69.57;;;28.43;;
21905;SDS011;11117;48.644;9.006;2022-12-15T16:36:55;76.33;;;29.50;;
21905;SDS011;11117;48.644;9.006;2022-12-15T16:39:24;71.63;;;31.30;;
21905;SDS011;11117;48.644;9.006;2022-12-15T16:41:52;77.33;;;28.47;;
21905;SDS011;11117;48.644;9.006;2022-12-15T16:44:19;63.50;;;25.17;;
21905;SDS011;11117;48.644;9.006;2022-12-15T16:46:45;74.80;;;27.93;;